PWSweather.com
Personal Weather Stations
Station Observations
GRD01
Warsaw, LesznoPL 05-084

WarsawLesznoPL 05-084

Lat: 52.257404, Lon: 20.564847

Elevation: 298

Station Type: WH3080

http://pogoda.kampinos.waw.pl

High Low Average
Temperature 72.1°F22.3°C 39.9°F4.4°C 57.1°F13.9°C
Dew Point 44.5°F6.9°C 35.5°F1.9°C 40.2°F4.6°C
Winds 7.6 mph 12.2 kmh Calm Calm 2.0 mph S3.2 kmh S
Wind Gusts 13.6 mph21.9 kmh -- 5.0 mph8.0 kmh
Humidity 92% 30% 57%
Pressure 30.08 in1018.6 mb 29.80 in1009.1 mb -
Precipitation 0.00 in0.0 mm - -
Hour Temp Dew Point Humidity Winds Wind Gusts Pressure Precip Precip Rate Daily Precip Total
12:00 AM 49.1°F9.5°C 39.0°F3.9°C 68% 3.1 mph N5.0 kmh N 4.5 mph7.2 kmh 30.07 in1018.3 mb 0.00 in0.0 mm 0.00 in0.0 mm 0.00 in0.0 mm
12:15 AM 48.7°F9.3°C 39.0°F3.9°C 69% 2.2 mph N3.5 kmh N 3.8 mph6.1 kmh 30.07 in1018.3 mb 0.00 in0.0 mm 0.00 in0.0 mm 0.00 in0.0 mm
12:30 AM 48.6°F9.2°C 39.2°F4.0°C 70% 3.8 mph N6.1 kmh N 4.5 mph7.2 kmh 30.07 in1018.3 mb 0.00 in0.0 mm 0.00 in0.0 mm 0.00 in0.0 mm
12:45 AM 47.8°F8.8°C 38.5°F3.6°C 70% 3.1 mph N5.0 kmh N 4.5 mph7.2 kmh 30.08 in1018.6 mb 0.00 in0.0 mm 0.00 in0.0 mm 0.00 in0.0 mm
01:00 AM 46.9°F8.3°C 38.0°F3.3°C 71% 3.8 mph N6.1 kmh N 4.5 mph7.2 kmh 30.07 in1018.3 mb 0.00 in0.0 mm 0.00 in0.0 mm 0.00 in0.0 mm
01:15 AM 45.7°F7.6°C 36.8°F2.7°C 71% 3.1 mph N5.0 kmh N 4.5 mph7.2 kmh 30.07 in1018.3 mb 0.00 in0.0 mm 0.00 in0.0 mm 0.00 in0.0 mm
01:30 AM 45.3°F7.4°C 39.5°F4.2°C 80% 2.2 mph N3.5 kmh N 3.8 mph6.1 kmh 30.07 in1018.3 mb 0.00 in0.0 mm 0.00 in0.0 mm 0.00 in0.0 mm
01:45 AM 45.3°F7.4°C 39.5°F4.2°C 80% 3.1 mph N5.0 kmh N 3.8 mph6.1 kmh 30.06 in1017.9 mb 0.00 in0.0 mm 0.00 in0.0 mm 0.00 in0.0 mm
02:00 AM 45.3°F7.4°C 39.8°F4.3°C 81% 5.4 mph N8.7 kmh N 6.9 mph11.1 kmh 30.07 in1018.3 mb 0.00 in0.0 mm 0.00 in0.0 mm 0.00 in0.0 mm
02:15 AM 45.5°F7.5°C 38.0°F3.3°C 75% 2.2 mph N3.5 kmh N 5.4 mph8.7 kmh 30.07 in1018.3 mb 0.00 in0.0 mm 0.00 in0.0 mm 0.00 in0.0 mm
02:30 AM 45.1°F7.3°C 39.7°F4.3°C 81% Calm Calm 3.8 mph6.1 kmh 30.08 in1018.6 mb 0.00 in0.0 mm 0.00 in0.0 mm 0.00 in0.0 mm
02:45 AM 44.4°F6.9°C 38.6°F3.7°C 80% 1.6 mph SW2.6 kmh SW 2.2 mph3.5 kmh 30.07 in1018.3 mb 0.00 in0.0 mm 0.00 in0.0 mm 0.00 in0.0 mm
03:00 AM 43.7°F6.5°C 38.3°F3.5°C 81% Calm Calm 2.2 mph3.5 kmh 30.07 in1018.3 mb 0.00 in0.0 mm 0.00 in0.0 mm 0.00 in0.0 mm
03:15 AM 43.2°F6.2°C 37.7°F3.2°C 81% Calm Calm 2.2 mph3.5 kmh 30.07 in1018.3 mb 0.00 in0.0 mm 0.00 in0.0 mm 0.00 in0.0 mm
03:30 AM 42.8°F6.0°C 37.7°F3.2°C 82% Calm Calm -- 30.07 in1018.3 mb 0.00 in0.0 mm 0.00 in0.0 mm 0.00 in0.0 mm
03:45 AM 42.1°F5.6°C 37.0°F2.8°C 82% 1.6 mph NNW2.6 kmh NNW 3.1 mph5.0 kmh 30.07 in1018.3 mb 0.00 in0.0 mm 0.00 in0.0 mm 0.00 in0.0 mm
04:00 AM 41.4°F5.2°C 36.3°F2.4°C 82% 2.2 mph N3.5 kmh N 3.8 mph6.1 kmh 30.07 in1018.3 mb 0.00 in0.0 mm 0.00 in0.0 mm 0.00 in0.0 mm
04:15 AM 40.3°F4.6°C 35.5°F1.9°C 83% 2.2 mph N3.5 kmh N 3.1 mph5.0 kmh 30.07 in1018.3 mb 0.00 in0.0 mm 0.00 in0.0 mm 0.00 in0.0 mm
04:30 AM 39.9°F4.4°C 35.5°F1.9°C 84% 2.2 mph N3.5 kmh N 3.8 mph6.1 kmh 30.07 in1018.3 mb 0.00 in0.0 mm 0.00 in0.0 mm 0.00 in0.0 mm
04:45 AM 40.1°F4.5°C 36.2°F2.3°C 86% 1.6 mph NNE2.6 kmh NNE 3.1 mph5.0 kmh 30.07 in1018.3 mb 0.00 in0.0 mm 0.00 in0.0 mm 0.00 in0.0 mm
05:00 AM 40.1°F4.5°C 36.5°F2.5°C 87% 1.6 mph N2.6 kmh N 3.1 mph5.0 kmh 30.07 in1018.3 mb 0.00 in0.0 mm 0.00 in0.0 mm 0.00 in0.0 mm
05:15 AM 40.1°F4.5°C 36.5°F2.5°C 87% 1.6 mph N2.6 kmh N 6.9 mph11.1 kmh 30.07 in1018.3 mb 0.00 in0.0 mm 0.00 in0.0 mm 0.00 in0.0 mm
05:30 AM 40.6°F4.8°C 37.7°F3.2°C 89% 1.6 mph N2.6 kmh N 2.2 mph3.5 kmh 30.06 in1017.9 mb 0.00 in0.0 mm 0.00 in0.0 mm 0.00 in0.0 mm
05:45 AM 41.0°F5.0°C 38.3°F3.5°C 90% 1.6 mph N2.6 kmh N 2.2 mph3.5 kmh 30.07 in1018.3 mb 0.00 in0.0 mm 0.00 in0.0 mm 0.00 in0.0 mm
06:00 AM 42.8°F6.0°C 40.4°F4.7°C 91% 3.1 mph N5.0 kmh N 3.8 mph6.1 kmh 30.07 in1018.3 mb 0.00 in0.0 mm 0.00 in0.0 mm 0.00 in0.0 mm
06:15 AM 45.0°F7.2°C 42.8°F6.0°C 92% 3.1 mph NNW5.0 kmh NNW 4.5 mph7.2 kmh 30.07 in1018.3 mb 0.00 in0.0 mm 0.00 in0.0 mm 0.00 in0.0 mm
06:30 AM 47.3°F8.5°C 43.9°F6.6°C 88% 3.8 mph NNE6.1 kmh NNE 5.4 mph8.7 kmh 30.08 in1018.6 mb 0.00 in0.0 mm 0.00 in0.0 mm 0.00 in0.0 mm
06:45 AM 49.1°F9.5°C 43.5°F6.4°C 81% 3.1 mph NE5.0 kmh NE 4.5 mph7.2 kmh 30.08 in1018.6 mb 0.00 in0.0 mm 0.00 in0.0 mm 0.00 in0.0 mm
07:00 AM 50.4°F10.2°C 42.7°F5.9°C 75% 2.2 mph NE3.5 kmh NE 4.5 mph7.2 kmh 30.07 in1018.3 mb 0.00 in0.0 mm 0.00 in0.0 mm 0.00 in0.0 mm
07:15 AM 51.4°F10.8°C 42.7°F5.9°C 72% 1.6 mph NE2.6 kmh NE 5.4 mph8.7 kmh 30.07 in1018.3 mb 0.00 in0.0 mm 0.00 in0.0 mm 0.00 in0.0 mm
07:30 AM 52.2°F11.2°C 42.7°F5.9°C 70% 0.7 mph N1.1 kmh N 4.5 mph7.2 kmh 30.07 in1018.3 mb 0.00 in0.0 mm 0.00 in0.0 mm 0.00 in0.0 mm
07:45 AM 52.9°F11.6°C 43.0°F6.1°C 69% 1.6 mph N2.6 kmh N 3.8 mph6.1 kmh 30.07 in1018.3 mb 0.00 in0.0 mm 0.00 in0.0 mm 0.00 in0.0 mm
08:00 AM 53.6°F12.0°C 42.9°F6.1°C 67% 0.7 mph S1.1 kmh S 2.2 mph3.5 kmh 30.07 in1018.3 mb 0.00 in0.0 mm 0.00 in0.0 mm 0.00 in0.0 mm
08:15 AM 54.7°F12.6°C 41.9°F5.5°C 62% 1.6 mph SSW2.6 kmh SSW 4.5 mph7.2 kmh 30.07 in1018.3 mb 0.00 in0.0 mm 0.00 in0.0 mm 0.00 in0.0 mm
08:30 AM 56.1°F13.4°C 42.8°F6.0°C 61% 3.1 mph ENE5.0 kmh ENE 4.5 mph7.2 kmh 30.07 in1018.3 mb 0.00 in0.0 mm 0.00 in0.0 mm 0.00 in0.0 mm
08:45 AM 57.4°F14.1°C 43.6°F6.4°C 60% 3.1 mph SSE5.0 kmh SSE 5.4 mph8.7 kmh 30.07 in1018.3 mb 0.00 in0.0 mm 0.00 in0.0 mm 0.00 in0.0 mm
09:00 AM 59.5°F15.3°C 43.8°F6.6°C 56% 3.1 mph SW5.0 kmh SW 6.0 mph9.7 kmh 30.07 in1018.3 mb 0.00 in0.0 mm 0.00 in0.0 mm 0.00 in0.0 mm
09:15 AM 60.8°F16.0°C 44.5°F6.9°C 55% 1.6 mph NE2.6 kmh NE 6.9 mph11.1 kmh 30.07 in1018.3 mb 0.00 in0.0 mm 0.00 in0.0 mm 0.00 in0.0 mm
09:30 AM 61.3°F16.3°C 44.1°F6.7°C 53% 2.2 mph SW3.5 kmh SW 6.0 mph9.7 kmh 30.07 in1018.3 mb 0.00 in0.0 mm 0.00 in0.0 mm 0.00 in0.0 mm
09:45 AM 61.7°F16.5°C 44.4°F6.9°C 53% 3.8 mph S6.1 kmh S 6.9 mph11.1 kmh 30.07 in1018.3 mb 0.00 in0.0 mm 0.00 in0.0 mm 0.00 in0.0 mm
10:00 AM 62.2°F16.8°C 43.9°F6.6°C 51% 6.0 mph SW9.7 kmh SW 8.3 mph13.4 kmh 30.06 in1017.9 mb 0.00 in0.0 mm 0.00 in0.0 mm 0.00 in0.0 mm
10:15 AM 63.0°F17.2°C 44.5°F6.9°C 51% 2.2 mph WSW3.5 kmh WSW 9.2 mph14.8 kmh 30.07 in1018.3 mb 0.00 in0.0 mm 0.00 in0.0 mm 0.00 in0.0 mm
10:30 AM 63.7°F17.6°C 42.5°F5.8°C 46% 3.8 mph SSE6.1 kmh SSE 9.8 mph15.8 kmh 30.07 in1018.3 mb 0.00 in0.0 mm 0.00 in0.0 mm 0.00 in0.0 mm
10:45 AM 64.6°F18.1°C 42.2°F5.7°C 44% 7.6 mph S12.2 kmh S 9.8 mph15.8 kmh 30.05 in1017.6 mb 0.00 in0.0 mm 0.00 in0.0 mm 0.00 in0.0 mm
11:00 AM 65.1°F18.4°C 42.7°F5.9°C 44% 3.8 mph WNW6.1 kmh WNW 10.7 mph17.2 kmh 30.05 in1017.6 mb 0.00 in0.0 mm 0.00 in0.0 mm 0.00 in0.0 mm
11:15 AM 65.8°F18.8°C 42.1°F5.6°C 42% 3.8 mph WSW6.1 kmh WSW 6.9 mph11.1 kmh 30.04 in1017.3 mb 0.00 in0.0 mm 0.00 in0.0 mm 0.00 in0.0 mm
11:30 AM 66.4°F19.1°C 42.0°F5.6°C 41% 4.5 mph W7.2 kmh W 10.7 mph17.2 kmh 30.05 in1017.6 mb 0.00 in0.0 mm 0.00 in0.0 mm 0.00 in0.0 mm
11:45 AM 67.3°F19.6°C 42.8°F6.0°C 41% 7.6 mph SSE12.2 kmh SSE 13.6 mph21.9 kmh 30.04 in1017.3 mb 0.00 in0.0 mm 0.00 in0.0 mm 0.00 in0.0 mm
12:00 PM 68.7°F20.4°C 43.4°F6.3°C 40% 1.6 mph SW2.6 kmh SW 9.2 mph14.8 kmh 30.04 in1017.3 mb 0.00 in0.0 mm 0.00 in0.0 mm 0.00 in0.0 mm
12:15 PM 69.3°F20.7°C 41.9°F5.5°C 37% 6.0 mph SW9.7 kmh SW 10.7 mph17.2 kmh 30.04 in1017.3 mb 0.00 in0.0 mm 0.00 in0.0 mm 0.00 in0.0 mm
12:30 PM 69.1°F20.6°C 41.0°F5.0°C 36% 6.0 mph SSW9.7 kmh SSW 9.8 mph15.8 kmh 30.03 in1016.9 mb 0.00 in0.0 mm 0.00 in0.0 mm 0.00 in0.0 mm
12:45 PM 69.6°F20.9°C 40.7°F4.8°C 35% 6.0 mph SW9.7 kmh SW 9.8 mph15.8 kmh 30.02 in1016.6 mb 0.00 in0.0 mm 0.00 in0.0 mm 0.00 in0.0 mm
01:00 PM 70.0°F21.1°C 39.5°F4.2°C 33% 1.6 mph S2.6 kmh S 9.8 mph15.8 kmh 30.02 in1016.6 mb 0.00 in0.0 mm 0.00 in0.0 mm 0.00 in0.0 mm
01:15 PM 70.5°F21.4°C 40.0°F4.4°C 33% 6.9 mph WSW11.1 kmh WSW 8.3 mph13.4 kmh 30.02 in1016.6 mb 0.00 in0.0 mm 0.00 in0.0 mm 0.00 in0.0 mm
01:30 PM 70.7°F21.5°C 39.4°F4.1°C 32% 6.0 mph SW9.7 kmh SW 9.8 mph15.8 kmh 30.01 in1016.3 mb 0.00 in0.0 mm 0.00 in0.0 mm 0.00 in0.0 mm
01:45 PM 70.7°F21.5°C 39.4°F4.1°C 32% 2.2 mph W3.5 kmh W 6.9 mph11.1 kmh 30.00 in1015.9 mb 0.00 in0.0 mm 0.00 in0.0 mm 0.00 in0.0 mm
02:00 PM 70.9°F21.6°C 39.5°F4.2°C 32% 1.6 mph SW2.6 kmh SW 7.6 mph12.2 kmh 29.99 in1015.6 mb 0.00 in0.0 mm 0.00 in0.0 mm 0.00 in0.0 mm
02:15 PM 71.2°F21.8°C 39.0°F3.9°C 31% 5.4 mph SW8.7 kmh SW 9.2 mph14.8 kmh 29.99 in1015.6 mb 0.00 in0.0 mm 0.00 in0.0 mm 0.00 in0.0 mm
02:30 PM 71.8°F22.1°C 39.5°F4.2°C 31% 6.0 mph ESE9.7 kmh ESE 9.2 mph14.8 kmh 29.98 in1015.2 mb 0.00 in0.0 mm 0.00 in0.0 mm 0.00 in0.0 mm
02:45 PM 72.1°F22.3°C 39.0°F3.9°C 30% 6.0 mph WNW9.7 kmh WNW 8.3 mph13.4 kmh 29.97 in1014.9 mb 0.00 in0.0 mm 0.00 in0.0 mm 0.00 in0.0 mm
03:00 PM 71.8°F22.1°C 38.7°F3.7°C 30% 2.2 mph SW3.5 kmh SW 8.3 mph13.4 kmh 29.96 in1014.6 mb 0.00 in0.0 mm 0.00 in0.0 mm 0.00 in0.0 mm
03:15 PM 71.6°F22.0°C 39.3°F4.1°C 31% 1.6 mph W2.6 kmh W 5.4 mph8.7 kmh 29.96 in1014.6 mb 0.00 in0.0 mm 0.00 in0.0 mm 0.00 in0.0 mm
03:30 PM 71.2°F21.8°C 39.0°F3.9°C 31% 1.6 mph WSW2.6 kmh WSW 6.0 mph9.7 kmh 29.95 in1014.2 mb 0.00 in0.0 mm 0.00 in0.0 mm 0.00 in0.0 mm
03:45 PM 71.4°F21.9°C 39.2°F4.0°C 31% 1.6 mph WSW2.6 kmh WSW 9.8 mph15.8 kmh 29.95 in1014.2 mb 0.00 in0.0 mm 0.00 in0.0 mm 0.00 in0.0 mm
04:00 PM 71.4°F21.9°C 38.4°F3.6°C 30% 0.7 mph NW1.1 kmh NW 7.6 mph12.2 kmh 29.95 in1014.2 mb 0.00 in0.0 mm 0.00 in0.0 mm 0.00 in0.0 mm
04:15 PM 71.4°F21.9°C 38.4°F3.6°C 30% 2.2 mph SE3.5 kmh SE 6.9 mph11.1 kmh 29.94 in1013.9 mb 0.00 in0.0 mm 0.00 in0.0 mm 0.00 in0.0 mm
04:30 PM 71.1°F21.7°C 38.0°F3.3°C 30% 3.1 mph SSW5.0 kmh SSW 7.6 mph12.2 kmh 29.93 in1013.5 mb 0.00 in0.0 mm 0.00 in0.0 mm 0.00 in0.0 mm
04:45 PM 70.9°F21.6°C 37.9°F3.3°C 30% 3.1 mph NNE5.0 kmh NNE 6.0 mph9.7 kmh 29.93 in1013.5 mb 0.00 in0.0 mm 0.00 in0.0 mm 0.00 in0.0 mm
05:00 PM 70.3°F21.3°C 37.4°F3.0°C 30% 4.5 mph SW7.2 kmh SW 6.9 mph11.1 kmh 29.93 in1013.5 mb 0.00 in0.0 mm 0.00 in0.0 mm 0.00 in0.0 mm
05:15 PM 69.8°F21.0°C 36.9°F2.7°C 30% 3.1 mph SSW5.0 kmh SSW 7.6 mph12.2 kmh 29.91 in1012.9 mb 0.00 in0.0 mm 0.00 in0.0 mm 0.00 in0.0 mm
05:30 PM 69.3°F20.7°C 37.3°F2.9°C 31% 1.6 mph SSE2.6 kmh SSE 5.4 mph8.7 kmh 29.91 in1012.9 mb 0.00 in0.0 mm 0.00 in0.0 mm 0.00 in0.0 mm
05:45 PM 68.7°F20.4°C 37.7°F3.2°C 32% 0.7 mph SSW1.1 kmh SSW 3.8 mph6.1 kmh 29.91 in1012.9 mb 0.00 in0.0 mm 0.00 in0.0 mm 0.00 in0.0 mm
06:00 PM 68.0°F20.0°C 38.6°F3.7°C 34% Calm Calm 2.2 mph3.5 kmh 29.90 in1012.5 mb 0.00 in0.0 mm 0.00 in0.0 mm 0.00 in0.0 mm
06:15 PM 66.9°F19.4°C 38.4°F3.6°C 35% Calm Calm -- 29.90 in1012.5 mb 0.00 in0.0 mm 0.00 in0.0 mm 0.00 in0.0 mm
06:30 PM 65.7°F18.7°C 39.3°F4.1°C 38% Calm Calm -- 29.89 in1012.2 mb 0.00 in0.0 mm 0.00 in0.0 mm 0.00 in0.0 mm
06:45 PM 64.4°F18.0°C 40.8°F4.9°C 42% Calm Calm -- 29.89 in1012.2 mb 0.00 in0.0 mm 0.00 in0.0 mm 0.00 in0.0 mm
07:00 PM 62.6°F17.0°C 42.1°F5.6°C 47% Calm Calm -- 29.89 in1012.2 mb 0.00 in0.0 mm 0.00 in0.0 mm 0.00 in0.0 mm
07:15 PM 61.0°F16.1°C 42.2°F5.7°C 50% 1.6 mph ESE2.6 kmh ESE 2.2 mph3.5 kmh 29.89 in1012.2 mb 0.00 in0.0 mm 0.00 in0.0 mm 0.00 in0.0 mm
07:30 PM 59.5°F15.3°C 41.9°F5.5°C 52% Calm Calm 0.7 mph1.1 kmh 29.88 in1011.9 mb 0.00 in0.0 mm 0.00 in0.0 mm 0.00 in0.0 mm
07:45 PM 58.3°F14.6°C 41.2°F5.1°C 53% Calm Calm -- 29.88 in1011.9 mb 0.00 in0.0 mm 0.00 in0.0 mm 0.00 in0.0 mm
08:00 PM 57.2°F14.0°C 41.2°F5.1°C 55% Calm Calm 1.6 mph2.6 kmh 29.87 in1011.5 mb 0.00 in0.0 mm 0.00 in0.0 mm 0.00 in0.0 mm
08:15 PM 56.1°F13.4°C 41.1°F5.1°C 57% Calm Calm -- 29.87 in1011.5 mb 0.00 in0.0 mm 0.00 in0.0 mm 0.00 in0.0 mm
08:30 PM 55.0°F12.8°C 41.0°F5.0°C 59% 0.7 mph S1.1 kmh S 2.2 mph3.5 kmh 29.87 in1011.5 mb 0.00 in0.0 mm 0.00 in0.0 mm 0.00 in0.0 mm
08:45 PM 54.3°F12.4°C 42.4°F5.8°C 64% 2.2 mph S3.5 kmh S 3.8 mph6.1 kmh 29.86 in1011.2 mb 0.00 in0.0 mm 0.00 in0.0 mm 0.00 in0.0 mm
09:00 PM 54.1°F12.3°C 42.2°F5.7°C 64% Calm Calm 2.2 mph3.5 kmh 29.86 in1011.2 mb 0.00 in0.0 mm 0.00 in0.0 mm 0.00 in0.0 mm
09:15 PM 53.6°F12.0°C 41.7°F5.4°C 64% Calm Calm -- 29.85 in1010.8 mb 0.00 in0.0 mm 0.00 in0.0 mm 0.00 in0.0 mm
09:30 PM 53.1°F11.7°C 42.0°F5.6°C 66% 1.6 mph S2.6 kmh S 3.1 mph5.0 kmh 29.84 in1010.5 mb 0.00 in0.0 mm 0.00 in0.0 mm 0.00 in0.0 mm
09:45 PM 53.2°F11.8°C 41.8°F5.4°C 65% 2.2 mph S3.5 kmh S 3.8 mph6.1 kmh 29.84 in1010.5 mb 0.00 in0.0 mm 0.00 in0.0 mm 0.00 in0.0 mm
10:00 PM 53.4°F11.9°C 41.9°F5.5°C 65% 0.7 mph S1.1 kmh S 3.1 mph5.0 kmh 29.82 in1009.8 mb 0.00 in0.0 mm 0.00 in0.0 mm 0.00 in0.0 mm
10:15 PM 54.3°F12.4°C 41.6°F5.3°C 62% 0.7 mph S1.1 kmh S 3.1 mph5.0 kmh 29.83 in1010.2 mb 0.00 in0.0 mm 0.00 in0.0 mm 0.00 in0.0 mm
10:30 PM 54.5°F12.5°C 40.5°F4.7°C 59% 2.2 mph S3.5 kmh S 3.1 mph5.0 kmh 29.81 in1009.5 mb 0.00 in0.0 mm 0.00 in0.0 mm 0.00 in0.0 mm
10:45 PM 54.1°F12.3°C 41.0°F5.0°C 61% Calm Calm 2.2 mph3.5 kmh 29.81 in1009.5 mb 0.00 in0.0 mm 0.00 in0.0 mm 0.00 in0.0 mm
11:00 PM 53.1°F11.7°C 40.4°F4.7°C 62% 1.6 mph S2.6 kmh S 3.8 mph6.1 kmh 29.80 in1009.1 mb 0.00 in0.0 mm 0.00 in0.0 mm 0.00 in0.0 mm
11:15 PM 52.0°F11.1°C 39.8°F4.3°C 63% Calm Calm 2.2 mph3.5 kmh 29.80 in1009.1 mb 0.00 in0.0 mm 0.00 in0.0 mm 0.00 in0.0 mm
11:30 PM 50.9°F10.5°C 39.1°F3.9°C 64% 2.2 mph SW3.5 kmh SW 3.1 mph5.0 kmh 29.80 in1009.1 mb 0.00 in0.0 mm 0.00 in0.0 mm 0.00 in0.0 mm
11:45 PM 50.2°F10.1°C 39.3°F4.1°C 66% 0.7 mph S1.1 kmh S 3.1 mph5.0 kmh 29.80 in1009.1 mb 0.00 in0.0 mm 0.00 in0.0 mm 0.00 in0.0 mm